Decoded Metar for NZWN (WELLINGTON in NEW ZEALAND) (IATA:WLG) | Meteo·Mobile Aviation Weather
aviador You're here:

NZWN Decoded Metar

WELLINGTON in NEW ZEALAND
Report Time2018-12-16 15:30:00
UTC Time2018-12-16 15:44:18
Flight Rules vfr VFR
Wind040° at 10 kt
W.Decomp.*RWY 34: 7.8 kt HW 6.3 kt RCW
W.Rank040° ranks 14
Current wind is above 040° avg. (5.9)
Visibility9999 m
Phenomena:N/A
Clouds:N/A
Expected CloudBase > 800 ft AGL from Temp-Dew spread
CeilingNone
Temp16°C (ISA +1)
Dew Point14°C (88% RH)
AAT13.7°C
QNH1023 hPa
Density Alt23 ft
Elevation23 ft
Report Wrong Elevation
Raw Report
NZWN 161530Z AUTO 04010KT 9999 NCD 16/14 Q1023 NOSIG=

Extra information for NZWN:More info

Metar Taf Metar & Taf Last 4 Metars F.Rules Stats Wind Profile Meteogram Temp Stats Airport Information Weather charts Add Link Nearby VenuesMetar ALERT Operation Metar Decoded Social comments